Terminal Aerodrome Forecast
Issued by NWS Portland, ME

Home | Current Version | Previous Version | Text Only | Print | Product List | Glossary On
Versions: 1 2 3 4 5 6 7 8 9 10 11 12 13 14 15 16 17 18 19 20 21 22 23 24 25 26 27 28 29 30 31 32 33 34 35 36 37 38 39 40
000
FTUS41 KGYX 251120
TAFPWM
TAF
KPWM 251120Z 2512/2612 VRB02KT P6SM FEW200
     FM251300 10005KT P6SM BKN070
     FM251800 13008KT 2SM -SHRA OVC010
      TEMPO 2520/2522 -TSRA OVC010CB
     FM260100 12005KT 1SM BR OVC005
     FM260600 08003KT 1/2SM FG OVC003=

USA.gov is the U.S. government's official web portal to all federal, state and local government web resources and services.